Terminal Aerodrome Forecast
Issued by NWS Cleveland, OH

Home | Current Version | Previous Version | Graphics & Text | Print | Product List | Glossary On
Versions: 1 2 3 4 5 6 7 8 9 10 11 12 13 14 15 16 17 18 19 20 21
000
FTUS41 KCLE 161140
TAFYNG
TAF
KYNG 161140Z 1612/1712 32007KT 1SM -RA BR OVC003
     FM161400 32009KT 3SM BR OVC007
     FM161600 32012KT P6SM OVC010
     FM162000 32012KT P6SM BKN020
     FM170300 32005KT P6SM SCT035
     FM170600 00000KT P6SM FEW200=

USA.gov is the U.S. government's official web portal to all federal, state and local government web resources and services.